Time;durP1;ratioP1;P1;durP2;ratioP2;P2;SDS_P1;SDS_P2;PMS_P1;PMS_P2;Temp;Humidity;BMP_temperature;BMP_pressure;BME280_temperature;BME280_humidity;BME280_pressure;Samples;Min_cycle;Max_cycle;Signal;HPM_P1;HPM_P2
2021/04/28 00:00:18;;;;;;;27.17;11.88;;;;;;;3.75;57.51;100489.16;1700442;84;21330;-68
2021/04/28 00:02:46;;;;;;;34.98;13.10;;;;;;;3.71;57.54;100486.41;1700501;84;21296;-67
2021/04/28 00:05:15;;;;;;;31.23;11.97;;;;;;;3.64;57.71;100489.37;1700473;84;21125;-67
2021/04/28 00:07:44;;;;;;;32.73;12.15;;;;;;;3.61;57.89;100491.02;1700705;84;21216;-68
2021/04/28 00:10:15;;;;;;;28.87;10.30;;;;;;;3.57;58.01;100489.62;1700635;84;21467;-67
2021/04/28 00:12:43;;;;;;;24.43;10.43;;;;;;;3.57;58.05;100488.27;1700341;84;21102;-69
2021/04/28 00:15:16;;;;;;;25.32;10.58;;;;;;;3.58;58.07;100489.47;1700487;84;21097;-67
2021/04/28 00:17:44;;;;;;;26.70;10.70;;;;;;;3.60;58.09;100494.73;1700444;84;21220;-68
2021/04/28 00:20:13;;;;;;;25.37;10.10;;;;;;;3.60;58.10;100490.67;1702147;84;21069;-68
2021/04/28 00:22:40;;;;;;;27.37;10.45;;;;;;;3.58;58.14;100496.24;1674598;85;21790;-67
2021/04/28 00:25:10;;;;;;;27.50;10.18;;;;;;;3.56;58.09;100497.40;1702673;84;21814;-68
2021/04/28 00:27:38;;;;;;;24.35;9.20;;;;;;;3.55;58.18;100497.05;1674764;85;21809;-68
2021/04/28 00:30:08;;;;;;;17.67;7.90;;;;;;;3.55;58.14;100497.90;1702733;82;21233;-68
2021/04/28 00:32:35;;;;;;;17.70;7.03;;;;;;;3.56;58.02;100498.75;1702712;84;21841;-67
2021/04/28 00:35:05;;;;;;;13.83;6.33;;;;;;;3.54;57.87;100496.69;1674618;85;21333;-67
2021/04/28 00:37:32;;;;;;;13.72;5.72;;;;;;;3.54;57.66;100500.25;1703045;84;21090;-67
2021/04/28 00:39:59;;;;;;;14.70;6.50;;;;;;;3.53;57.62;100497.20;1702660;84;21097;-67
2021/04/28 00:42:27;;;;;;;15.43;7.00;;;;;;;3.52;57.56;100497.34;1674535;85;21065;-68
2021/04/28 00:44:54;;;;;;;14.28;6.37;;;;;;;3.52;57.52;100505.47;1702861;84;21054;-68
2021/04/28 00:47:22;;;;;;;14.03;6.28;;;;;;;3.49;57.54;100496.64;1702956;84;21090;-67
2021/04/28 00:49:49;;;;;;;13.22;6.30;;;;;;;3.46;57.54;100501.00;1702917;84;21181;-66
2021/04/28 00:52:16;;;;;;;16.40;6.37;;;;;;;3.43;57.61;100502.66;1702617;84;21216;-67
2021/04/28 00:54:44;;;;;;;12.35;6.12;;;;;;;3.40;57.68;100504.31;1674483;84;21102;-67
2021/04/28 00:57:11;;;;;;;13.40;5.30;;;;;;;3.36;57.77;100502.91;1658923;85;21105;-67
2021/04/28 00:59:39;;;;;;;12.47;5.55;;;;;;;3.34;57.90;100509.47;1674279;85;21349;-67
2021/04/28 01:02:07;;;;;;;12.43;5.40;;;;;;;3.29;58.04;100511.27;1674558;84;21355;-67
2021/04/28 01:04:37;;;;;;;16.87;5.47;;;;;;;3.24;58.09;100504.56;1674325;85;21485;-67
2021/04/28 01:07:05;;;;;;;12.33;5.15;;;;;;;3.23;58.17;100506.91;1674787;84;21094;-68
2021/04/28 01:09:34;;;;;;;11.22;4.83;;;;;;;3.20;58.20;100504.00;1649779;85;21085;-68
2021/04/28 01:12:03;;;;;;;12.37;4.80;;;;;;;3.21;58.12;100508.41;1674554;84;21070;-68
2021/04/28 01:14:32;;;;;;;10.43;4.40;;;;;;;3.22;58.02;100502.50;1674292;85;21344;-68
2021/04/28 01:17:02;;;;;;;8.98;4.33;;;;;;;3.21;57.97;100503.00;1674747;84;21418;-68
2021/04/28 01:19:37;;;;;;;8.43;4.05;;;;;;;3.23;57.94;100505.56;1674145;85;21082;-69
2021/04/28 01:22:06;;;;;;;9.68;4.03;;;;;;;3.25;57.83;100507.16;1674661;84;21066;-69
2021/04/28 01:24:35;;;;;;;9.45;4.50;;;;;;;3.27;57.72;100517.84;1672084;84;21109;-67
2021/04/28 01:27:10;;;;;;;14.13;5.55;;;;;;;3.24;57.61;100506.77;1646316;85;21359;-68
2021/04/28 01:29:38;;;;;;;13.50;5.87;;;;;;;3.23;57.58;100505.06;1729787;82;21060;-66
2021/04/28 01:32:05;;;;;;;11.50;5.50;;;;;;;3.21;57.62;100503.00;1705345;83;21071;-67
2021/04/28 01:34:33;;;;;;;12.30;5.28;;;;;;;3.19;57.67;100502.30;1699610;84;21209;-67
2021/04/28 01:37:02;;;;;;;11.60;5.37;;;;;;;3.18;57.72;100506.00;1672805;84;21131;-67
2021/04/28 01:39:32;;;;;;;11.20;5.20;;;;;;;3.15;57.90;100503.09;1761064;81;21128;-67
2021/04/28 01:41:59;;;;;;;10.72;4.80;;;;;;;3.15;57.97;100503.59;1737095;81;21077;-67
2021/04/28 01:44:26;;;;;;;10.60;5.05;;;;;;;3.13;57.95;100509.66;1760989;81;21037;-68
2021/04/28 01:46:54;;;;;;;15.28;5.87;;;;;;;3.13;57.96;100508.30;1761130;81;21128;-67
2021/04/28 01:49:23;;;;;;;16.67;7.30;;;;;;;3.13;57.98;100503.74;1761018;81;21073;-69
2021/04/28 01:51:54;;;;;;;21.33;8.20;;;;;;;3.12;58.03;100499.83;1761152;81;21363;-67
2021/04/28 01:54:22;;;;;;;19.87;8.33;;;;;;;3.13;58.09;100511.86;1760992;81;21136;-68
2021/04/28 01:56:51;;;;;;;18.00;7.20;;;;;;;3.12;58.06;100505.24;1761021;81;21124;-68
2021/04/28 01:59:22;;;;;;;14.23;6.83;;;;;;;3.03;58.26;100504.77;1758216;81;21400;-67
2021/04/28 02:01:57;;;;;;;20.27;7.53;;;;;;;2.98;58.49;100508.42;1759710;81;21735;-68
2021/04/28 02:04:26;;;;;;;23.18;8.48;;;;;;;2.94;58.58;100507.86;1760209;81;21017;-68
2021/04/28 02:06:54;;;;;;;23.02;9.25;;;;;;;2.93;58.73;100506.65;1761056;81;21073;-68
2021/04/28 02:09:22;;;;;;;22.95;9.23;;;;;;;2.92;58.88;100509.00;1761065;81;21048;-68
2021/04/28 02:11:51;;;;;;;24.60;9.28;;;;;;;2.92;58.95;100513.91;1737488;81;21056;-68
2021/04/28 02:14:21;;;;;;;25.02;9.90;;;;;;;2.93;58.91;100508.86;1761086;81;21088;-69
2021/04/28 02:16:56;;;;;;;16.23;6.67;;;;;;;2.92;58.93;100511.20;1752909;81;21049;-68
2021/04/28 02:19:25;;;;;;;21.40;9.35;;;;;;;2.92;58.92;100510.36;1733157;82;21129;-68
2021/04/28 02:21:54;;;;;;;23.47;9.43;;;;;;;2.91;58.91;100510.00;1736214;82;21085;-68
2021/04/28 02:24:23;;;;;;;23.38;9.90;;;;;;;2.91;58.90;100506.80;1723405;82;21081;-67
2021/04/28 02:26:56;;;;;;;23.55;9.18;;;;;;;2.93;58.86;100510.70;1738374;82;21093;-67
2021/04/28 02:29:25;;;;;;;27.40;10.95;;;;;;;2.92;58.86;100514.41;1711228;82;21105;-68
2021/04/28 02:31:54;;;;;;;26.05;11.15;;;;;;;2.87;58.91;100521.62;1738458;82;21364;-68
2021/04/28 02:34:24;;;;;;;30.80;12.35;;;;;;;2.86;58.95;100520.77;1737588;82;21757;-68
2021/04/28 02:36:55;;;;;;;28.42;11.68;;;;;;;2.85;59.08;100524.47;1736094;82;21180;-68
2021/04/28 02:39:42;;;;;;;32.40;11.63;;;;;;;2.85;59.17;100524.97;1738385;82;21472;-67
2021/04/28 02:42:10;;;;;;;32.03;14.75;;;;;;;2.83;59.28;100527.81;1738343;82;21171;-67
2021/04/28 02:44:38;;;;;;;33.18;13.80;;;;;;;2.83;59.37;100537.29;1738226;82;21200;-67
2021/04/28 02:47:07;;;;;;;35.73;14.60;;;;;;;2.83;59.43;100533.23;1738309;81;21873;-66
2021/04/28 02:49:38;;;;;;;36.75;14.15;;;;;;;2.82;59.52;100531.52;1711311;82;21104;-69
2021/04/28 02:52:24;;;;;;;31.12;12.90;;;;;;;2.80;59.54;100536.72;1715799;82;21875;-68
2021/04/28 02:54:52;;;;;;;26.75;11.40;;;;;;;2.78;59.62;100540.93;1711334;82;21100;-68
2021/04/28 02:57:21;;;;;;;24.12;11.48;;;;;;;2.76;59.65;100537.52;1738482;82;21239;-67
2021/04/28 02:59:50;;;;;;;27.62;10.38;;;;;;;2.73;59.62;100533.74;1738354;82;21885;-67
2021/04/28 03:02:18;;;;;;;23.60;10.38;;;;;;;2.70;59.68;100535.88;1737507;82;21104;-67
2021/04/28 03:04:46;;;;;;;24.72;9.78;;;;;;;2.66;59.80;100531.26;1682839;84;21073;-66
2021/04/28 03:07:17;;;;;;;20.25;8.50;;;;;;;2.66;59.81;100533.11;1708911;82;21816;-68
2021/04/28 03:09:45;;;;;;;19.90;8.83;;;;;;;2.64;59.83;100533.25;1709009;84;21064;-68
2021/04/28 03:12:13;;;;;;;19.48;8.48;;;;;;;2.63;59.85;100537.45;1708929;82;21305;-68
2021/04/28 03:14:42;;;;;;;21.70;8.35;;;;;;;2.63;59.89;100540.16;1708843;82;21100;-68
2021/04/28 03:17:10;;;;;;;21.90;8.73;;;;;;;2.59;59.96;100543.62;1708924;82;21053;-67
2021/04/28 03:19:38;;;;;;;19.12;9.08;;;;;;;2.60;60.01;100546.71;1714428;81;21100;-68
2021/04/28 03:22:05;;;;;;;22.22;9.55;;;;;;;2.61;60.04;100540.30;1751686;81;21078;-68
2021/04/28 03:24:33;;;;;;;25.65;10.13;;;;;;;2.62;60.01;100550.13;1751524;82;21047;-69
2021/04/28 03:27:08;;;;;;;23.22;9.75;;;;;;;2.60;59.98;100552.13;1726283;82;21050;-67
2021/04/28 03:29:37;;;;;;;24.12;9.68;;;;;;;2.57;60.11;100547.47;1751881;82;21054;-67
2021/04/28 03:32:06;;;;;;;24.12;10.55;;;;;;;2.55;60.16;100552.52;1751840;81;21169;-67
2021/04/28 03:34:37;;;;;;;25.97;9.93;;;;;;;2.56;60.19;100553.38;1751752;82;21790;-68
2021/04/28 03:37:05;;;;;;;20.75;9.20;;;;;;;2.58;60.24;100556.78;1751734;81;21089;-68
2021/04/28 03:39:47;;;;;;;27.13;10.10;;;;;;;2.62;60.19;100561.45;1751584;82;21101;-68
2021/04/28 03:42:15;;;;;;;25.52;9.18;;;;;;;2.63;60.28;100564.00;1751579;82;21818;-68
2021/04/28 03:44:43;;;;;;;26.00;11.22;;;;;;;2.66;60.29;100565.08;1750839;81;21108;-69
2021/04/28 03:47:11;;;;;;;26.93;10.72;;;;;;;2.69;60.30;100568.84;1740254;81;21124;-69
2021/04/28 03:49:40;;;;;;;27.75;11.70;;;;;;;2.72;60.32;100565.85;1738314;82;21054;-69
2021/04/28 03:52:10;;;;;;;27.10;11.88;;;;;;;2.74;60.37;100574.68;1711097;82;21199;-67
2021/04/28 03:54:55;;;;;;;34.48;11.85;;;;;;;2.79;60.35;100575.60;1738569;82;21765;-67
2021/04/28 03:57:23;;;;;;;28.52;12.50;;;;;;;2.82;60.28;100578.02;1738514;82;21181;-69
2021/04/28 03:59:51;;;;;;;31.82;11.93;;;;;;;2.88;60.22;100583.36;1738518;82;21192;-69
2021/04/28 04:02:19;;;;;;;28.90;11.88;;;;;;;2.91;60.13;100579.86;1738455;82;21100;-68
2021/04/28 04:04:59;;;;;;;29.87;11.00;;;;;;;2.96;60.04;100578.93;1734575;82;21078;-67
2021/04/28 04:07:43;;;;;;;30.00;11.20;;;;;;;3.03;59.93;100586.83;1634991;86;21119;-71
2021/04/28 04:10:25;;;;;;;29.65;12.18;;;;;;;3.11;59.74;100591.52;1724324;82;21228;-70
2021/04/28 04:12:52;;;;;;;31.68;12.18;;;;;;;3.16;59.61;100591.94;1751582;82;21454;-69
2021/04/28 04:15:20;;;;;;;28.87;12.00;;;;;;;3.23;59.47;100595.77;1751640;81;21062;-69
2021/04/28 04:17:47;;;;;;;30.45;13.80;;;;;;;3.31;59.30;100593.71;1751617;82;21065;-69
2021/04/28 04:20:20;;;;;;;30.05;12.43;;;;;;;3.37;59.02;100604.81;1749291;82;21353;-68
2021/04/28 04:22:59;;;;;;;31.17;12.03;;;;;;;3.44;58.93;100610.00;1699729;83;21882;-67
2021/04/28 04:25:37;;;;;;;26.48;11.20;;;;;;;3.52;58.80;100601.64;1699607;84;21094;-70
2021/04/28 04:28:05;;;;;;;28.38;11.60;;;;;;;3.59;58.52;100604.11;1700158;84;21058;-68
2021/04/28 04:30:53;;;;;;;25.25;11.45;;;;;;;3.66;58.32;100603.87;1698312;84;21066;-69
2021/04/28 04:33:38;;;;;;;27.62;11.88;;;;;;;3.72;58.09;100606.84;1700303;84;21058;-70
2021/04/28 04:36:25;;;;;;;26.85;11.65;;;;;;;3.82;57.89;100606.80;1700267;84;21345;-69
2021/04/28 04:39:10;;;;;;;27.67;11.80;;;;;;;3.91;57.64;100607.28;1700189;84;22041;-68
2021/04/28 04:41:55;;;;;;;32.42;13.08;;;;;;;4.00;57.34;100613.16;1696233;84;21197;-67
2021/04/28 04:44:42;;;;;;;18.95;8.95;;;;;;;4.07;57.07;100610.20;1700219;84;21856;-67
2021/04/28 04:47:09;;;;;;;18.12;6.55;;;;;;;4.16;55.70;100617.08;1700287;84;21181;-70
2021/04/28 04:49:39;;;;;;;16.57;5.37;;;;;;;4.22;54.34;100613.77;1700325;84;21160;-69
2021/04/28 04:52:06;;;;;;;13.83;5.35;;;;;;;4.30;52.98;100616.56;1700188;84;21177;-68
2021/04/28 04:54:33;;;;;;;15.13;4.75;;;;;;;4.40;52.08;100620.07;1700277;84;21054;-68
2021/04/28 04:57:01;;;;;;;13.28;5.05;;;;;;;4.49;51.45;100624.58;1700262;84;21106;-68
2021/04/28 04:59:28;;;;;;;12.03;5.55;;;;;;;4.59;50.75;100625.40;1700195;84;21337;-70
2021/04/28 05:01:56;;;;;;;14.75;5.05;;;;;;;4.70;50.19;100629.24;1700364;84;21304;-69
2021/04/28 05:04:24;;;;;;;11.93;5.28;;;;;;;4.78;49.85;100633.90;1700207;84;21347;-69
2021/04/28 05:06:53;;;;;;;11.22;4.80;;;;;;;4.86;49.48;100632.62;1700284;84;21058;-70
2021/04/28 05:09:21;;;;;;;12.15;4.97;;;;;;;4.93;49.17;100630.14;1700393;84;21054;-68
2021/04/28 05:11:49;;;;;;;11.63;4.50;;;;;;;5.02;48.77;100634.63;1700388;84;21347;-68
2021/04/28 05:14:17;;;;;;;12.47;4.83;;;;;;;5.11;48.34;100636.41;1700365;84;21090;-68
2021/04/28 05:16:46;;;;;;;11.25;4.55;;;;;;;5.18;47.91;100633.91;1699987;84;21067;-70
2021/04/28 05:19:14;;;;;;;11.45;4.42;;;;;;;5.25;47.80;100634.52;1699704;84;21851;-70
2021/04/28 05:21:42;;;;;;;11.93;4.65;;;;;;;5.32;47.68;100636.95;1729591;82;21363;-70
2021/04/28 05:24:10;;;;;;;12.98;4.80;;;;;;;5.40;47.46;100649.23;1731811;82;21119;-69
2021/04/28 05:26:55;;;;;;;8.35;3.87;;;;;;;5.47;47.30;100644.53;1691073;83;21317;-70
2021/04/28 05:29:22;;;;;;;7.03;3.33;;;;;;;5.54;47.05;100645.59;1718759;82;21341;-68
2021/04/28 05:31:50;;;;;;;11.95;3.77;;;;;;;5.60;46.26;100649.03;1719268;83;21036;-68
2021/04/28 05:34:17;;;;;;;10.00;3.83;;;;;;;5.66;45.94;100654.69;1700304;84;21368;-69
2021/04/28 05:36:45;;;;;;;9.33;3.58;;;;;;;5.74;45.80;100652.52;1731734;82;21279;-68
2021/04/28 05:39:12;;;;;;;6.58;3.08;;;;;;;5.81;45.48;100663.11;1719190;83;21111;-70
2021/04/28 05:41:40;;;;;;;9.43;2.65;;;;;;;5.87;45.10;100658.92;1700535;84;21058;-69
2021/04/28 05:44:08;;;;;;;7.65;2.42;;;;;;;5.93;44.72;100662.39;1742383;82;21067;-69
2021/04/28 05:46:37;;;;;;;8.73;3.15;;;;;;;6.00;44.38;100661.58;1744931;82;21495;-73
2021/04/28 05:49:04;;;;;;;7.87;3.10;;;;;;;6.08;44.19;100661.27;1746946;82;21168;-72
2021/04/28 05:51:32;;;;;;;5.65;2.80;;;;;;;6.13;43.91;100661.13;1746823;81;21062;-72
2021/04/28 05:53:59;;;;;;;7.47;2.65;;;;;;;6.19;43.86;100660.98;1746639;82;21479;-72
2021/04/28 05:56:26;;;;;;;5.67;3.08;;;;;;;6.26;43.38;100660.68;1746862;82;21350;-72
2021/04/28 05:58:53;;;;;;;7.83;2.92;;;;;;;6.33;43.11;100668.53;1746870;82;21355;-72
2021/04/28 06:01:21;;;;;;;6.72;3.05;;;;;;;6.38;42.97;100672.97;1746861;82;21047;-72
2021/04/28 06:03:48;;;;;;;5.03;2.65;;;;;;;6.43;42.94;100671.97;1746884;82;21042;-72
2021/04/28 06:06:15;;;;;;;7.55;2.55;;;;;;;6.48;42.76;100670.13;1746817;82;21809;-72
2021/04/28 06:08:43;;;;;;;5.12;2.22;;;;;;;6.56;42.59;100676.48;1746884;81;21571;-73
2021/04/28 06:11:11;;;;;;;6.20;2.27;;;;;;;6.65;42.36;100670.55;1728724;81;21038;-73
2021/04/28 06:13:39;;;;;;;7.08;2.42;;;;;;;6.78;42.24;100679.60;1746775;82;21730;-73
2021/04/28 06:16:07;;;;;;;5.42;2.10;;;;;;;6.90;41.90;100679.12;1699648;84;21798;-73
2021/04/28 06:18:34;;;;;;;4.53;2.17;;;;;;;7.01;41.46;100672.49;1746727;82;21050;-73
2021/04/28 06:21:02;;;;;;;4.10;2.12;;;;;;;7.14;41.09;100677.45;1699461;84;21376;-73
2021/04/28 06:23:29;;;;;;;4.28;1.90;;;;;;;7.24;40.77;100673.57;1728202;81;21183;-73
2021/04/28 06:25:57;;;;;;;5.08;2.10;;;;;;;7.38;40.41;100683.45;1741034;81;21526;-73
2021/04/28 06:28:24;;;;;;;3.47;1.52;;;;;;;7.47;39.84;100686.52;1735841;82;21077;-73
2021/04/28 06:30:52;;;;;;;2.67;1.62;;;;;;;7.59;39.59;100690.61;1735730;82;21134;-73
2021/04/28 06:33:19;;;;;;;4.37;2.20;;;;;;;7.69;39.44;100683.09;1707288;84;21054;-73
2021/04/28 06:35:46;;;;;;;3.33;1.65;;;;;;;7.79;38.90;100682.91;1731979;82;21314;-73
2021/04/28 06:38:14;;;;;;;2.77;1.52;;;;;;;7.85;38.76;100677.65;1733749;82;21435;-73
2021/04/28 06:40:42;;;;;;;6.28;2.33;;;;;;;7.93;38.70;100687.18;1733862;82;21069;-73
2021/04/28 06:43:09;;;;;;;6.03;2.10;;;;;;;8.03;38.54;100684.27;1733923;82;21077;-73
2021/04/28 06:45:39;;;;;;;3.85;2.37;;;;;;;8.13;38.39;100685.42;1733343;82;21078;-73
2021/04/28 06:48:08;;;;;;;7.55;3.00;;;;;;;8.24;37.87;100687.78;1733980;82;21089;-73
2021/04/28 06:50:37;;;;;;;6.75;2.95;;;;;;;8.29;38.02;100685.38;1734026;82;21156;-73
2021/04/28 06:53:06;;;;;;;11.90;3.30;;;;;;;8.37;37.94;100685.89;1733961;82;21085;-73
2021/04/28 06:55:34;;;;;;;7.62;3.20;;;;;;;8.43;38.06;100690.13;1733779;82;21316;-73
2021/04/28 06:58:02;;;;;;;5.25;2.50;;;;;;;8.51;37.77;100690.13;1733999;82;21139;-73
2021/04/28 07:00:30;;;;;;;7.55;2.30;;;;;;;8.60;37.77;100690.09;1731936;82;21498;-73
2021/04/28 07:02:59;;;;;;;4.95;2.02;;;;;;;8.68;37.49;100699.09;1742703;82;21058;-73
2021/04/28 07:05:27;;;;;;;4.85;1.98;;;;;;;8.77;36.88;100693.93;1747455;82;21784;-72
2021/04/28 07:07:55;;;;;;;3.92;2.00;;;;;;;8.83;36.82;100689.12;1757934;81;21085;-72
2021/04/28 07:10:25;;;;;;;5.10;2.10;;;;;;;8.90;36.77;100697.45;1758264;81;20999;-72
2021/04/28 07:12:53;;;;;;;5.12;1.90;;;;;;;8.99;36.39;100696.36;1739128;82;21006;-71
2021/04/28 07:15:20;;;;;;;5.35;1.75;;;;;;;9.06;36.32;100704.69;1742615;82;21750;-69
2021/04/28 07:17:48;;;;;;;7.90;2.30;;;;;;;9.15;35.93;100710.47;1750425;82;21173;-71
2021/04/28 07:20:16;;;;;;;3.05;1.90;;;;;;;9.16;35.86;100702.09;1740477;82;21073;-70
2021/04/28 07:22:43;;;;;;;3.20;2.00;;;;;;;9.18;35.74;100706.86;1733575;82;21062;-70
2021/04/28 07:25:11;;;;;;;5.55;2.25;;;;;;;9.23;35.87;100704.10;1734985;81;21070;-71
2021/04/28 07:27:43;;;;;;;5.53;2.30;;;;;;;9.34;35.88;100705.89;1735221;81;21085;-70
2021/04/28 07:30:12;;;;;;;3.98;2.00;;;;;;;9.44;35.64;100705.13;1729639;81;21090;-70
2021/04/28 07:32:39;;;;;;;4.58;2.10;;;;;;;9.55;35.18;100710.69;1729878;83;21081;-69
2021/04/28 07:35:08;;;;;;;5.22;2.20;;;;;;;9.61;35.04;100707.22;1752437;81;21024;-68
2021/04/28 07:37:35;;;;;;;4.35;2.22;;;;;;;9.69;34.79;100695.34;1743747;81;21328;-69
2021/04/28 07:40:05;;;;;;;9.03;2.92;;;;;;;9.76;34.90;100685.40;1743030;82;21237;-71
2021/04/28 07:42:33;;;;;;;6.05;2.42;;;;;;;9.85;34.50;100696.59;1742826;82;21077;-70
2021/04/28 07:45:00;;;;;;;6.08;3.27;;;;;;;9.89;34.64;100705.28;1700081;82;21057;-68
2021/04/28 07:47:27;;;;;;;3.98;1.52;;;;;;;9.95;34.16;100697.70;1697706;82;21789;-69
2021/04/28 07:49:57;;;;;;;2.20;1.40;;;;;;;10.02;33.10;100712.34;1732945;81;21075;-71
2021/04/28 07:52:25;;;;;;;4.30;1.87;;;;;;;10.01;33.06;100696.95;1739884;81;21985;-72
2021/04/28 07:58:05;;;;;;;4.78;1.90;;;;;;;10.07;32.65;100705.78;1703734;81;23655;-71
2021/04/28 08:00:33;;;;;;;2.42;1.75;;;;;;;10.02;32.59;100698.66;1676387;85;21233;-76
2021/04/28 08:03:00;;;;;;;3.80;1.85;;;;;;;10.04;32.81;100692.47;1700461;84;21113;-74
2021/04/28 08:05:28;;;;;;;3.95;1.77;;;;;;;10.17;32.73;100698.14;1706913;84;21746;-73
2021/04/28 08:07:55;;;;;;;8.23;2.33;;;;;;;10.31;32.63;100697.34;1692776;84;21046;-72
2021/04/28 08:10:23;;;;;;;4.85;1.65;;;;;;;10.45;32.44;100691.55;1676304;85;21086;-74
2021/04/28 08:12:50;;;;;;;2.77;1.65;;;;;;;10.58;32.42;100689.52;1676416;85;21503;-73
2021/04/28 08:15:18;;;;;;;4.00;1.77;;;;;;;10.69;32.29;100701.36;1676523;85;21733;-75
2021/04/28 08:17:45;;;;;;;3.72;1.70;;;;;;;10.75;31.46;100701.44;1677773;84;21811;-69
2021/04/28 08:20:14;;;;;;;2.37;1.87;;;;;;;10.74;31.48;100701.11;1706821;84;21085;-74
2021/04/28 08:22:42;;;;;;;2.60;1.50;;;;;;;10.73;31.40;100693.08;1697201;84;21412;-76
2021/04/28 08:25:12;;;;;;;3.92;1.57;;;;;;;10.68;31.34;100690.91;1678551;84;21106;-71
2021/04/28 08:27:40;;;;;;;2.30;1.40;;;;;;;10.72;31.46;100687.27;1646334;87;21259;-68
2021/04/28 08:30:10;;;;;;;3.87;1.90;;;;;;;10.86;31.19;100683.65;1671904;85;21081;-71
2021/04/28 08:32:37;;;;;;;4.10;2.00;;;;;;;10.96;30.96;100686.08;1672640;84;21065;-72
2021/04/28 08:35:06;;;;;;;3.05;1.90;;;;;;;10.97;31.12;100683.66;1692036;85;21078;-74
2021/04/28 08:37:35;;;;;;;5.05;2.12;;;;;;;11.04;31.00;100696.93;1675086;85;21347;-71
2021/04/28 08:40:05;;;;;;;3.85;1.80;;;;;;;11.07;30.89;100687.83;1674779;84;21161;-70
2021/04/28 08:42:32;;;;;;;3.77;1.50;;;;;;;11.14;30.80;100693.91;1690202;85;21106;-75
2021/04/28 08:44:59;;;;;;;4.78;1.70;;;;;;;11.17;30.78;100699.00;1670672;86;21078;-73
2021/04/28 08:47:27;;;;;;;4.47;1.90;;;;;;;11.16;30.82;100687.70;1670904;84;21283;-72
2021/04/28 08:49:54;;;;;;;3.22;1.60;;;;;;;11.23;30.94;100681.77;1670916;86;21388;-67
2021/04/28 08:52:22;;;;;;;3.35;1.50;;;;;;;11.38;30.84;100683.92;1668863;84;21669;-72
2021/04/28 08:54:49;;;;;;;2.77;1.65;;;;;;;11.45;30.41;100694.44;1671822;84;21746;-74
2021/04/28 08:57:17;;;;;;;3.60;2.15;;;;;;;11.48;30.20;100686.34;1677579;85;21233;-73
2021/04/28 08:59:45;;;;;;;3.25;1.70;;;;;;;11.47;29.92;100686.86;1655689;85;21093;-69
2021/04/28 09:02:16;;;;;;;7.03;1.70;;;;;;;11.44;29.94;100680.39;1671917;85;21090;-70
2021/04/28 09:05:09;;;;;;;9.55;2.98;;;;;;;11.47;30.26;100680.00;1672092;85;21155;-70
2021/04/28 09:07:38;;;;;;;3.95;1.85;;;;;;;11.60;30.47;100678.75;1649248;86;21158;-72
2021/04/28 09:10:16;;;;;;;6.28;2.00;;;;;;;11.76;29.85;100673.53;1666875;85;21800;-73
2021/04/28 09:12:52;;;;;;;;;;;;;;;11.82;29.54;100676.88;1676159;85;21085;-73
2021/04/28 09:15:43;;;;;;;5.47;1.85;;;;;;;11.84;29.57;100675.31;1671277;85;20243;-72
2021/04/28 09:18:18;;;;;;;2.35;1.60;;;;;;;11.86;29.67;100673.22;1673757;85;21050;-71
2021/04/28 09:21:04;;;;;;;5.92;1.65;;;;;;;11.93;29.54;100662.61;1648138;87;21510;-67
2021/04/28 09:23:50;;;;;;;3.35;1.55;;;;;;;12.02;29.63;100661.92;1671681;85;21126;-73
2021/04/28 09:26:37;;;;;;;2.90;1.80;;;;;;;12.16;29.54;100655.99;1649687;85;21497;-79
2021/04/28 09:29:09;;;;;;;4.15;1.40;;;;;;;12.28;28.77;100659.88;1645376;84;21194;-70
2021/04/28 09:31:37;;;;;;;4.37;1.98;;;;;;;12.32;27.90;100666.66;1699191;84;21924;-77
2021/04/28 09:34:05;;;;;;;2.58;1.50;;;;;;;12.37;28.12;100657.31;1699213;84;21190;-73
2021/04/28 09:36:39;;;;;;;2.70;1.30;;;;;;;12.44;28.13;100654.07;1699367;84;21087;-74
2021/04/28 09:39:10;;;;;;;3.05;1.50;;;;;;;12.59;27.67;100660.80;1686036;83;21182;-68
2021/04/28 09:41:43;;;;;;;3.20;1.65;;;;;;;12.72;27.11;100651.23;1674753;84;21794;-72
2021/04/28 09:44:22;;;;;;;3.17;1.70;;;;;;;12.78;27.21;100653.16;1647792;85;21727;-72
2021/04/28 09:47:10;;;;;;;4.50;1.70;;;;;;;12.78;27.57;100653.16;1669735;85;21105;-71
2021/04/28 09:49:54;;;;;;;11.30;1.80;;;;;;;12.81;27.66;100646.40;1675277;85;21168;-76
2021/04/28 09:52:33;;;;;;;2.90;1.50;;;;;;;12.89;27.56;100652.56;1675243;85;21539;-70
2021/04/28 09:55:11;;;;;;;3.70;1.80;;;;;;;12.92;27.59;100652.67;1675176;85;21089;-70
2021/04/28 09:57:48;;;;;;;3.72;1.72;;;;;;;12.86;27.54;100643.35;1656392;85;21122;-70
2021/04/28 10:00:24;;;;;;;4.00;1.80;;;;;;;12.92;27.81;100651.30;1674442;85;21172;-70
2021/04/28 10:02:58;;;;;;;4.75;1.62;;;;;;;12.96;27.66;100645.70;1670196;85;21108;-69
2021/04/28 10:05:29;;;;;;;2.05;1.55;;;;;;;13.04;27.78;100643.33;1670858;85;21196;-73
2021/04/28 10:08:19;;;;;;;2.80;1.57;;;;;;;13.14;27.70;100633.61;1658716;85;21072;-71
2021/04/28 10:10:51;;;;;;;4.10;1.72;;;;;;;13.26;27.40;100643.51;1660411;84;21086;-72
2021/04/28 10:13:19;;;;;;;2.55;1.70;;;;;;;13.21;27.51;100634.50;1628948;87;21423;-71
2021/04/28 10:15:47;;;;;;;2.55;1.62;;;;;;;13.23;27.58;100631.55;1646102;87;21142;-72
2021/04/28 10:18:15;;;;;;;3.25;1.50;;;;;;;13.32;27.65;100639.91;1645932;87;21377;-69
2021/04/28 10:20:45;;;;;;;4.28;1.80;;;;;;;13.43;27.33;100629.66;1643921;87;21279;-76
2021/04/28 10:23:15;;;;;;;3.10;1.85;;;;;;;13.52;27.42;100631.67;1621394;87;21104;-73
2021/04/28 10:25:48;;;;;;;3.65;1.87;;;;;;;13.60;27.08;100630.93;1675308;85;21156;-76
2021/04/28 10:28:18;;;;;;;6.92;1.85;;;;;;;13.66;27.24;100622.38;1675415;83;21193;-73
2021/04/28 10:30:47;;;;;;;3.70;1.72;;;;;;;13.77;27.38;100622.27;1675265;84;21538;-75
2021/04/28 10:33:22;;;;;;;3.52;2.10;;;;;;;13.89;27.27;100623.31;1693230;84;21132;-73
2021/04/28 10:35:50;;;;;;;4.50;2.08;;;;;;;13.88;27.25;100625.75;1703668;84;21082;-74
2021/04/28 10:38:22;;;;;;;7.45;2.40;;;;;;;13.89;27.46;100623.31;1703672;83;21109;-77
2021/04/28 10:40:50;;;;;;;5.53;2.08;;;;;;;13.93;27.33;100632.84;1703823;84;21050;-72
2021/04/28 10:43:20;;;;;;;4.40;2.00;;;;;;;13.85;27.41;100633.06;1698931;84;21130;-70
2021/04/28 10:45:48;;;;;;;6.28;2.52;;;;;;;13.89;27.46;100623.31;1656846;86;21342;-68
2021/04/28 10:48:21;;;;;;;4.65;2.30;;;;;;;13.94;27.39;100617.48;1630707;86;21205;-67
2021/04/28 10:50:48;;;;;;;3.55;1.80;;;;;;;13.99;27.23;100613.23;1634007;86;21226;-70
2021/04/28 10:53:27;;;;;;;4.15;2.20;;;;;;;14.06;27.22;100614.06;1641185;85;21308;-65
2021/04/28 10:56:13;;;;;;;5.92;2.72;;;;;;;14.19;27.18;100609.37;1672796;84;21473;-68
2021/04/28 10:58:46;;;;;;;2.75;2.00;;;;;;;14.36;26.74;100611.15;1676004;85;21318;-67
2021/04/28 11:01:19;;;;;;;3.12;1.70;;;;;;;14.49;25.79;100611.66;1683309;83;21172;-70
2021/04/28 11:03:55;;;;;;;4.65;2.00;;;;;;;14.45;25.50;100607.65;1653870;85;21132;-69
2021/04/28 11:06:28;;;;;;;3.37;1.80;;;;;;;14.44;25.33;100601.28;1682973;85;21209;-69
2021/04/28 11:09:04;;;;;;;5.12;2.12;;;;;;;14.45;25.81;100605.73;1683259;83;21050;-72
2021/04/28 11:11:42;;;;;;;5.50;2.15;;;;;;;14.49;25.96;100606.15;1685370;83;21078;-80
2021/04/28 11:14:18;;;;;;;3.17;1.77;;;;;;;14.58;25.89;100600.70;1684894;83;21082;-81
2021/04/28 11:16:53;;;;;;;2.85;1.82;;;;;;;14.67;25.61;100593.86;1654472;86;21084;-72
2021/04/28 11:19:38;;;;;;;3.25;1.87;;;;;;;14.75;25.59;100593.61;1681504;83;21078;-74
2021/04/28 11:22:29;;;;;;;6.75;2.22;;;;;;;14.89;25.42;100599.90;1682760;84;21404;-74
2021/04/28 11:25:15;;;;;;;3.25;1.50;;;;;;;15.02;25.50;100590.72;1675975;84;21090;-76
2021/04/28 11:28:04;;;;;;;3.67;1.85;;;;;;;15.15;25.30;100590.64;1649786;87;21077;-71
2021/04/28 11:30:43;;;;;;;2.65;1.70;;;;;;;15.26;24.89;100582.17;1675293;85;21113;-71
2021/04/28 11:33:30;;;;;;;3.80;1.77;;;;;;;15.17;24.64;100583.83;1674234;85;21073;-73
2021/04/28 11:36:08;;;;;;;4.83;1.90;;;;;;;15.10;25.19;100578.88;1689005;84;21150;-72
2021/04/28 11:38:42;;;;;;;4.58;1.85;;;;;;;15.28;25.03;100575.89;1675039;84;21148;-72
2021/04/28 11:41:18;;;;;;;4.42;1.45;;;;;;;15.41;24.39;100584.91;1657775;85;21131;-77
2021/04/28 11:43:54;;;;;;;3.25;1.87;;;;;;;15.44;24.29;100589.98;1675544;85;21114;-76
2021/04/28 11:46:25;;;;;;;3.50;1.60;;;;;;;15.51;24.27;100581.11;1675477;84;21105;-83